sensor_id;sensor_type;location;lat;lon;timestamp;pressure;altitude;pressure_sealevel;temperature;humidity
6899;BME280;3488;42.616;23.350;2022-12-07T00:01:43;62555.78;;;5.42;100.00
6899;BME280;3488;42.616;23.350;2022-12-07T00:04:11;62559.34;;;5.43;100.00
6899;BME280;3488;42.616;23.350;2022-12-07T00:06:41;62559.97;;;5.48;100.00
6899;BME280;3488;42.616;23.350;2022-12-07T00:09:11;62563.50;;;5.49;100.00
6899;BME280;3488;42.616;23.350;2022-12-07T00:11:40;62562.47;;;5.48;100.00
6899;BME280;3488;42.616;23.350;2022-12-07T00:14:10;62555.28;;;5.41;100.00
6899;BME280;3488;42.616;23.350;2022-12-07T00:16:37;62558.34;;;5.44;100.00
6899;BME280;3488;42.616;23.350;2022-12-07T00:19:04;62532.63;;;5.19;100.00
6899;BME280;3488;42.616;23.350;2022-12-07T00:21:33;62541.72;;;5.21;100.00
6899;BME280;3488;42.616;23.350;2022-12-07T00:24:01;62529.47;;;5.14;100.00
6899;BME280;3488;42.616;23.350;2022-12-07T00:26:30;62531.56;;;5.18;100.00
6899;BME280;3488;42.616;23.350;2022-12-07T00:29:00;62534.72;;;5.24;100.00
6899;BME280;3488;42.616;23.350;2022-12-07T00:31:28;62540.84;;;5.27;100.00
6899;BME280;3488;42.616;23.350;2022-12-07T00:33:57;62544.97;;;5.31;100.00
6899;BME280;3488;42.616;23.350;2022-12-07T00:36:25;62553.66;;;5.37;100.00
6899;BME280;3488;42.616;23.350;2022-12-07T00:38:53;62555.78;;;5.42;100.00
6899;BME280;3488;42.616;23.350;2022-12-07T00:41:21;62557.38;;;5.46;100.00
6899;BME280;3488;42.616;23.350;2022-12-07T00:43:49;62541.38;;;5.28;100.00
6899;BME280;3488;42.616;23.350;2022-12-07T00:46:18;62545.38;;;5.27;100.00
6899;BME280;3488;42.616;23.350;2022-12-07T00:48:46;62554.13;;;5.35;100.00
6899;BME280;3488;42.616;23.350;2022-12-07T00:51:15;62559.38;;;5.45;100.00
6899;BME280;3488;42.616;23.350;2022-12-07T00:53:42;62558.34;;;5.44;100.00
6899;BME280;3488;42.616;23.350;2022-12-07T00:56:12;62556.28;;;5.42;100.00
6899;BME280;3488;42.616;23.350;2022-12-07T00:58:39;62559.34;;;5.43;100.00
6899;BME280;3488;42.616;23.350;2022-12-07T01:01:08;62556.34;;;5.45;100.00
6899;BME280;3488;42.616;23.350;2022-12-07T01:03:37;62556.84;;;5.45;100.00
6899;BME280;3488;42.616;23.350;2022-12-07T01:06:05;62552.28;;;5.43;100.00
6899;BME280;3488;42.616;23.350;2022-12-07T01:08:33;62558.25;;;5.39;100.00
6899;BME280;3488;42.616;23.350;2022-12-07T01:11:01;62546.56;;;5.35;100.00
6899;BME280;3488;42.616;23.350;2022-12-07T01:13:29;62553.66;;;5.37;100.00
6899;BME280;3488;42.616;23.350;2022-12-07T01:15:58;62520.25;;;5.07;100.00
6899;BME280;3488;42.616;23.350;2022-12-07T01:18:26;62526.88;;;5.11;100.00
6899;BME280;3488;42.616;23.350;2022-12-07T01:21:02;62517.69;;;5.05;100.00
6899;BME280;3488;42.616;23.350;2022-12-07T01:23:29;62517.69;;;5.05;100.00
6899;BME280;3488;42.616;23.350;2022-12-07T01:25:57;62520.81;;;5.10;100.00
6899;BME280;3488;42.616;23.350;2022-12-07T01:28:25;62527.94;;;5.12;100.00
6899;BME280;3488;42.616;23.350;2022-12-07T01:30:59;62528.38;;;5.10;100.00
6899;BME280;3488;42.616;23.350;2022-12-07T01:33:28;62525.91;;;5.13;100.00
6899;BME280;3488;42.616;23.350;2022-12-07T01:36:02;62535.59;;;5.17;100.00
6899;BME280;3488;42.616;23.350;2022-12-07T01:38:29;62529.06;;;5.18;100.00
6899;BME280;3488;42.616;23.350;2022-12-07T01:40:57;62520.91;;;5.15;100.00
6899;BME280;3488;42.616;23.350;2022-12-07T01:43:26;62529.00;;;5.16;100.00
6899;BME280;3488;42.616;23.350;2022-12-07T01:45:54;62510.47;;;4.98;100.00
6899;BME280;3488;42.616;23.350;2022-12-07T01:48:25;62512.47;;;4.97;100.00
6899;BME280;3488;42.616;23.350;2022-12-07T01:50:55;62505.31;;;4.93;100.00
6899;BME280;3488;42.616;23.350;2022-12-07T01:53:26;62488.91;;;4.79;100.00
6899;BME280;3488;42.616;23.350;2022-12-07T01:55:56;62478.03;;;4.66;100.00
6899;BME280;3488;42.616;23.350;2022-12-07T01:58:25;62482.22;;;4.72;100.00
6899;BME280;3488;42.616;23.350;2022-12-07T02:00:52;62480.63;;;4.68;100.00
6899;BME280;3488;42.616;23.350;2022-12-07T02:03:22;62499.09;;;4.84;100.00
6899;BME280;3488;42.616;23.350;2022-12-07T02:05:51;62504.28;;;4.92;100.00
6899;BME280;3488;42.616;23.350;2022-12-07T02:08:20;62500.72;;;4.91;100.00
6899;BME280;3488;42.616;23.350;2022-12-07T02:10:49;62483.66;;;4.69;100.00
6899;BME280;3488;42.616;23.350;2022-12-07T02:13:19;62490.38;;;4.78;100.00
6899;BME280;3488;42.616;23.350;2022-12-07T02:16:06;62480.66;;;4.71;100.00
6899;BME280;3488;42.616;23.350;2022-12-07T02:18:55;62488.34;;;4.76;100.00
6899;BME280;3488;42.616;23.350;2022-12-07T02:21:34;62501.63;;;4.84;100.00
6899;BME280;3488;42.616;23.350;2022-12-07T02:24:15;62496.06;;;4.84;100.00
6899;BME280;3488;42.616;23.350;2022-12-07T02:27:10;62505.31;;;4.93;100.00
6899;BME280;3488;42.616;23.350;2022-12-07T02:29:44;62507.38;;;4.95;100.00
6899;BME280;3488;42.616;23.350;2022-12-07T02:32:16;62515.63;;;5.03;100.00
6899;BME280;3488;42.616;23.350;2022-12-07T02:34:49;62508.97;;;4.99;100.00
6899;BME280;3488;42.616;23.350;2022-12-07T02:37:33;62510.53;;;5.00;100.00
6899;BME280;3488;42.616;23.350;2022-12-07T02:40:06;62503.81;;;4.94;100.00
6899;BME280;3488;42.616;23.350;2022-12-07T02:42:38;62518.09;;;5.00;100.00
6899;BME280;3488;42.616;23.350;2022-12-07T02:45:11;62501.25;;;4.91;100.00
6899;BME280;3488;42.616;23.350;2022-12-07T02:47:39;62507.84;;;4.93;100.00
6899;BME280;3488;42.616;23.350;2022-12-07T02:50:08;62507.84;;;4.93;100.00
6899;BME280;3488;42.616;23.350;2022-12-07T02:52:36;62515.00;;;4.97;100.00
6899;BME280;3488;42.616;23.350;2022-12-07T02:55:03;62509.38;;;4.94;100.00
6899;BME280;3488;42.616;23.350;2022-12-07T02:57:41;62507.91;;;4.95;100.00
6899;BME280;3488;42.616;23.350;2022-12-07T03:00:15;62507.94;;;4.98;100.00
6899;BME280;3488;42.616;23.350;2022-12-07T03:02:50;62499.16;;;4.87;100.00
6899;BME280;3488;42.616;23.350;2022-12-07T03:05:28;62496.06;;;4.84;100.00
6899;BME280;3488;42.616;23.350;2022-12-07T03:08:02;62498.63;;;4.86;100.00
6899;BME280;3488;42.616;23.350;2022-12-07T03:10:36;62502.19;;;4.87;100.00
6899;BME280;3488;42.616;23.350;2022-12-07T03:13:09;62494.56;;;4.85;100.00
6899;BME280;3488;42.616;23.350;2022-12-07T03:15:45;62502.13;;;4.85;100.00
6899;BME280;3488;42.616;23.350;2022-12-07T03:18:15;62495.59;;;4.86;100.00
6899;BME280;3488;42.616;23.350;2022-12-07T03:20:45;62489.91;;;4.80;100.00
6899;BME280;3488;42.616;23.350;2022-12-07T03:23:16;62485.34;;;4.78;100.00
6899;BME280;3488;42.616;23.350;2022-12-07T03:25:47;62490.28;;;4.73;100.00
6899;BME280;3488;42.616;23.350;2022-12-07T03:28:17;62484.69;;;4.70;100.00
6899;BME280;3488;42.616;23.350;2022-12-07T03:30:50;62485.72;;;4.71;100.00
6899;BME280;3488;42.616;23.350;2022-12-07T03:33:22;62486.28;;;4.74;100.00
6899;BME280;3488;42.616;23.350;2022-12-07T03:35:58;62485.72;;;4.71;100.00
6899;BME280;3488;42.616;23.350;2022-12-07T03:38:31;62490.88;;;4.76;100.00
6899;BME280;3488;42.616;23.350;2022-12-07T03:41:01;62487.34;;;4.78;100.00
6899;BME280;3488;42.616;23.350;2022-12-07T03:43:29;62482.16;;;4.70;100.00
6899;BME280;3488;42.616;23.350;2022-12-07T03:46:01;62481.22;;;4.74;100.00
6899;BME280;3488;42.616;23.350;2022-12-07T03:48:37;62484.22;;;4.72;100.00
6899;BME280;3488;42.616;23.350;2022-12-07T03:51:17;62487.81;;;4.76;100.00
6899;BME280;3488;42.616;23.350;2022-12-07T03:53:50;62483.13;;;4.68;100.00
6899;BME280;3488;42.616;23.350;2022-12-07T03:56:20;62483.66;;;4.69;100.00
6899;BME280;3488;42.616;23.350;2022-12-07T03:58:49;62486.31;;;4.77;100.00
6899;BME280;3488;42.616;23.350;2022-12-07T04:01:19;62490.97;;;4.81;100.00
6899;BME280;3488;42.616;23.350;2022-12-07T04:03:46;62488.34;;;4.76;100.00
6899;BME280;3488;42.616;23.350;2022-12-07T04:06:13;62488.81;;;4.74;100.00
6899;BME280;3488;42.616;23.350;2022-12-07T04:08:40;62477.53;;;4.65;100.00
6899;BME280;3488;42.616;23.350;2022-12-07T04:11:07;62484.16;;;4.69;100.00
6899;BME280;3488;42.616;23.350;2022-12-07T04:13:33;62482.13;;;4.67;100.00
6899;BME280;3488;42.616;23.350;2022-12-07T04:16:22;62481.63;;;4.69;100.00
6899;BME280;3488;42.616;23.350;2022-12-07T04:18:49;62483.13;;;4.68;100.00
6899;BME280;3488;42.616;23.350;2022-12-07T04:21:16;62480.72;;;4.73;100.00
6899;BME280;3488;42.616;23.350;2022-12-07T04:23:43;62490.81;;;4.73;100.00
6899;BME280;3488;42.616;23.350;2022-12-07T04:26:09;62485.25;;;4.73;100.00
6899;BME280;3488;42.616;23.350;2022-12-07T04:28:36;62492.41;;;4.78;100.00
6899;BME280;3488;42.616;23.350;2022-12-07T04:31:03;62484.25;;;4.74;100.00
6899;BME280;3488;42.616;23.350;2022-12-07T04:33:31;62482.72;;;4.73;100.00
6899;BME280;3488;42.616;23.350;2022-12-07T04:35:58;62487.75;;;4.73;100.00
6899;BME280;3488;42.616;23.350;2022-12-07T04:38:25;62482.16;;;4.70;100.00
6899;BME280;3488;42.616;23.350;2022-12-07T04:40:52;62481.16;;;4.71;100.00
6899;BME280;3488;42.616;23.350;2022-12-07T04:43:19;62478.03;;;4.66;100.00
6899;BME280;3488;42.616;23.350;2022-12-07T04:45:47;62473.41;;;4.61;100.00
6899;BME280;3488;42.616;23.350;2022-12-07T04:48:14;62474.94;;;4.63;100.00
6899;BME280;3488;42.616;23.350;2022-12-07T04:50:42;62473.94;;;4.62;100.00
6899;BME280;3488;42.616;23.350;2022-12-07T04:53:09;62476.44;;;4.62;100.00
6899;BME280;3488;42.616;23.350;2022-12-07T04:55:36;62471.41;;;4.62;100.00
6899;BME280;3488;42.616;23.350;2022-12-07T04:58:03;62473.38;;;4.59;100.00
6899;BME280;3488;42.616;23.350;2022-12-07T05:00:29;62467.75;;;4.56;100.00
6899;BME280;3488;42.616;23.350;2022-12-07T05:02:56;62458.53;;;4.49;100.00
6899;BME280;3488;42.616;23.350;2022-12-07T05:05:23;62468.19;;;4.54;100.00
6899;BME280;3488;42.616;23.350;2022-12-07T05:07:52;62459.50;;;4.48;100.00
6899;BME280;3488;42.616;23.350;2022-12-07T05:10:19;62464.13;;;4.52;100.00
6899;BME280;3488;42.616;23.350;2022-12-07T05:12:46;62459.06;;;4.50;100.00
6899;BME280;3488;42.616;23.350;2022-12-07T05:15:13;62456.44;;;4.45;100.00
6899;BME280;3488;42.616;23.350;2022-12-07T05:17:41;62461.56;;;4.50;100.00
6899;BME280;3488;42.616;23.350;2022-12-07T05:20:11;62462.06;;;4.50;100.00
6899;BME280;3488;42.616;23.350;2022-12-07T05:22:38;62449.69;;;4.36;100.00
6899;BME280;3488;42.616;23.350;2022-12-07T05:25:07;62443.03;;;4.32;100.00
6899;BME280;3488;42.616;23.350;2022-12-07T05:27:34;62446.09;;;4.32;100.00
6899;BME280;3488;42.616;23.350;2022-12-07T05:30:01;62441.47;;;4.28;100.00
6899;BME280;3488;42.616;23.350;2022-12-07T05:32:28;62444.66;;;4.36;100.00
6899;BME280;3488;42.616;23.350;2022-12-07T05:34:55;62458.94;;;4.45;100.00
6899;BME280;3488;42.616;23.350;2022-12-07T05:37:22;62464.09;;;4.50;100.00
6899;BME280;3488;42.616;23.350;2022-12-07T05:39:49;62457.00;;;4.48;100.00
6899;BME280;3488;42.616;23.350;2022-12-07T05:42:17;62455.91;;;4.44;100.00
6899;BME280;3488;42.616;23.350;2022-12-07T05:44:45;62465.56;;;4.49;100.00
6899;BME280;3488;42.616;23.350;2022-12-07T05:47:13;62466.19;;;4.54;100.00
6899;BME280;3488;42.616;23.350;2022-12-07T05:49:41;62440.06;;;4.34;100.00
6899;BME280;3488;42.616;23.350;2022-12-07T05:52:08;62430.13;;;4.17;100.00
6899;BME280;3488;42.616;23.350;2022-12-07T05:54:35;62421.50;;;4.13;100.00
6899;BME280;3488;42.616;23.350;2022-12-07T05:57:02;62430.19;;;4.19;100.00
6899;BME280;3488;42.616;23.350;2022-12-07T05:59:30;62439.41;;;4.26;100.00
6899;BME280;3488;42.616;23.350;2022-12-07T06:01:59;62451.22;;;4.37;100.00
6899;BME280;3488;42.616;23.350;2022-12-07T06:04:27;62442.59;;;4.34;100.00
6899;BME280;3488;42.616;23.350;2022-12-07T06:06:54;62453.84;;;4.42;100.00
6899;BME280;3488;42.616;23.350;2022-12-07T06:09:23;62446.53;;;4.30;100.00
6899;BME280;3488;42.616;23.350;2022-12-07T06:11:51;62433.31;;;4.25;100.00
6899;BME280;3488;42.616;23.350;2022-12-07T06:14:37;62446.09;;;4.32;100.00
6899;BME280;3488;42.616;23.350;2022-12-07T06:17:05;62456.38;;;4.42;100.00
6899;BME280;3488;42.616;23.350;2022-12-07T06:19:32;62456.47;;;4.47;100.00
6899;BME280;3488;42.616;23.350;2022-12-07T06:22:00;62471.31;;;4.57;100.00
6899;BME280;3488;42.616;23.350;2022-12-07T06:24:28;62469.88;;;4.60;100.00
6899;BME280;3488;42.616;23.350;2022-12-07T06:26:55;62480.56;;;4.66;100.00
6899;BME280;3488;42.616;23.350;2022-12-07T06:29:21;62487.84;;;4.78;100.00
6899;BME280;3488;42.616;23.350;2022-12-07T06:31:50;62492.44;;;4.80;100.00
6899;BME280;3488;42.616;23.350;2022-12-07T06:34:19;62488.94;;;4.82;100.00
6899;BME280;3488;42.616;23.350;2022-12-07T06:36:48;62491.44;;;4.79;100.00
6899;BME280;3488;42.616;23.350;2022-12-07T06:39:17;62499.25;;;4.92;100.00
6899;BME280;3488;42.616;23.350;2022-12-07T06:41:45;62510.47;;;4.98;100.00
6899;BME280;3488;42.616;23.350;2022-12-07T06:44:12;62532.63;;;5.19;100.00
6899;BME280;3488;42.616;23.350;2022-12-07T06:46:39;62534.66;;;5.21;100.00
6899;BME280;3488;42.616;23.350;2022-12-07T06:49:08;62542.91;;;5.29;100.00
6899;BME280;3488;42.616;23.350;2022-12-07T06:51:35;62552.69;;;5.39;100.00
6899;BME280;3488;42.616;23.350;2022-12-07T06:54:06;62522.88;;;5.12;100.00
6899;BME280;3488;42.616;23.350;2022-12-07T06:56:33;62502.69;;;4.88;100.00
6899;BME280;3488;42.616;23.350;2022-12-07T06:59:00;62501.78;;;4.92;100.00
6899;BME280;3488;42.616;23.350;2022-12-07T07:01:27;62484.69;;;4.70;100.00
6899;BME280;3488;42.616;23.350;2022-12-07T07:03:53;62514.53;;;4.99;100.00
6899;BME280;3488;42.616;23.350;2022-12-07T07:06:22;62528.53;;;5.18;100.00
6899;BME280;3488;42.616;23.350;2022-12-07T07:08:49;62519.13;;;5.01;100.00
6899;BME280;3488;42.616;23.350;2022-12-07T07:11:16;62531.63;;;5.21;100.00
6899;BME280;3488;42.616;23.350;2022-12-07T07:13:43;62541.41;;;5.30;100.00
6899;BME280;3488;42.616;23.350;2022-12-07T07:16:11;62561.41;;;5.45;100.00
6899;BME280;3488;42.616;23.350;2022-12-07T07:18:39;62538.75;;;5.23;100.00
6899;BME280;3488;42.616;23.350;2022-12-07T07:21:06;62518.25;;;5.08;100.00
6899;BME280;3488;42.616;23.350;2022-12-07T07:23:34;62503.69;;;4.86;100.00
6899;BME280;3488;42.616;23.350;2022-12-07T07:26:02;62486.31;;;4.77;100.00
6899;BME280;3488;42.616;23.350;2022-12-07T07:28:29;62467.28;;;4.58;100.00
6899;BME280;3488;42.616;23.350;2022-12-07T07:30:58;62501.09;;;4.84;100.00
6899;BME280;3488;42.616;23.350;2022-12-07T07:33:26;62519.69;;;5.04;100.00
6899;BME280;3488;42.616;23.350;2022-12-07T07:35:54;62534.16;;;5.21;100.00
6899;BME280;3488;42.616;23.350;2022-12-07T07:38:21;62552.66;;;5.36;100.00
6899;BME280;3488;42.616;23.350;2022-12-07T07:40:49;62565.00;;;5.48;100.00
6899;BME280;3488;42.616;23.350;2022-12-07T07:43:16;62573.31;;;5.59;100.00
6899;BME280;3488;42.616;23.350;2022-12-07T07:45:44;62589.75;;;5.72;100.00
6899;BME280;3488;42.616;23.350;2022-12-07T07:48:10;62596.44;;;5.79;100.00
6899;BME280;3488;42.616;23.350;2022-12-07T07:50:37;62600.09;;;5.85;100.00
6899;BME280;3488;42.616;23.350;2022-12-07T07:53:04;62614.03;;;5.99;100.00
6899;BME280;3488;42.616;23.350;2022-12-07T07:55:31;62629.53;;;6.16;100.00
6899;BME280;3488;42.616;23.350;2022-12-07T07:57:59;62642.31;;;6.24;100.00
6899;BME280;3488;42.616;23.350;2022-12-07T08:00:26;62593.28;;;5.73;100.00
6899;BME280;3488;42.616;23.350;2022-12-07T08:02:53;62541.94;;;5.31;100.00
6899;BME280;3488;42.616;23.350;2022-12-07T08:05:20;62565.06;;;5.51;100.00
6899;BME280;3488;42.616;23.350;2022-12-07T08:07:47;62578.91;;;5.62;100.00
6899;BME280;3488;42.616;23.350;2022-12-07T08:10:13;62567.69;;;5.56;100.00
6899;BME280;3488;42.616;23.350;2022-12-07T08:12:42;62597.00;;;5.82;100.00
6899;BME280;3488;42.616;23.350;2022-12-07T08:15:30;62609.28;;;5.89;100.00
6899;BME280;3488;42.616;23.350;2022-12-07T08:17:57;62574.28;;;5.57;100.00
6899;BME280;3488;42.616;23.350;2022-12-07T08:20:24;62546.47;;;5.30;100.00
6899;BME280;3488;42.616;23.350;2022-12-07T08:22:51;62566.59;;;5.52;100.00
6899;BME280;3488;42.616;23.350;2022-12-07T08:25:18;62572.25;;;5.58;100.00
6899;BME280;3488;42.616;23.350;2022-12-07T08:27:45;62588.22;;;5.73;100.00
6899;BME280;3488;42.616;23.350;2022-12-07T08:30:15;62602.00;;;5.79;100.00
6899;BME280;3488;42.616;23.350;2022-12-07T08:32:44;62617.69;;;6.05;100.00
6899;BME280;3488;42.616;23.350;2022-12-07T08:35:11;62613.03;;;6.00;100.00
6899;BME280;3488;42.616;23.350;2022-12-07T08:37:39;62611.91;;;5.94;100.00
6899;BME280;3488;42.616;23.350;2022-12-07T08:40:10;62617.13;;;6.02;100.00
6899;BME280;3488;42.616;23.350;2022-12-07T08:42:41;62609.91;;;5.95;100.00
6899;BME280;3488;42.616;23.350;2022-12-07T08:45:12;62609.91;;;5.95;100.00
6899;BME280;3488;42.616;23.350;2022-12-07T08:47:47;62600.69;;;5.88;100.00
6899;BME280;3488;42.616;23.350;2022-12-07T08:50:15;62599.06;;;5.84;100.00
6899;BME280;3488;42.616;23.350;2022-12-07T08:52:43;62629.44;;;6.11;100.00
6899;BME280;3488;42.616;23.350;2022-12-07T08:55:11;62617.06;;;5.99;100.00
6899;BME280;3488;42.616;23.350;2022-12-07T08:57:41;62599.06;;;5.84;100.00
6899;BME280;3488;42.616;23.350;2022-12-07T09:00:26;62632.06;;;6.16;100.00
6899;BME280;3488;42.616;23.350;2022-12-07T09:02:55;62649.06;;;6.33;100.00
6899;BME280;3488;42.616;23.350;2022-12-07T09:05:22;62659.31;;;6.40;100.00
6899;BME280;3488;42.616;23.350;2022-12-07T09:07:52;62663.00;;;6.46;100.00
6899;BME280;3488;42.616;23.350;2022-12-07T09:10:21;62664.00;;;6.47;100.00
6899;BME280;3488;42.616;23.350;2022-12-07T09:12:48;62688.25;;;6.71;100.00
6899;BME280;3488;42.616;23.350;2022-12-07T09:15:16;62691.88;;;6.74;100.00
6899;BME280;3488;42.616;23.350;2022-12-07T09:17:43;62716.53;;;6.93;100.00
6899;BME280;3488;42.616;23.350;2022-12-07T09:20:12;62709.34;;;6.89;100.00
6899;BME280;3488;42.616;23.350;2022-12-07T09:22:39;62716.09;;;6.98;100.00
6899;BME280;3488;42.616;23.350;2022-12-07T09:25:07;62725.38;;;7.07;100.00
6899;BME280;3488;42.616;23.350;2022-12-07T09:27:34;62724.94;;;7.09;100.00
6899;BME280;3488;42.616;23.350;2022-12-07T09:30:01;62748.03;;;7.27;100.00
6899;BME280;3488;42.616;23.350;2022-12-07T09:32:28;62766.63;;;7.45;100.00
6899;BME280;3488;42.616;23.350;2022-12-07T09:34:55;62774.41;;;7.55;100.00
6899;BME280;3488;42.616;23.350;2022-12-07T09:37:23;62779.03;;;7.59;100.00
6899;BME280;3488;42.616;23.350;2022-12-07T09:39:50;62787.34;;;7.70;100.00
6899;BME280;3488;42.616;23.350;2022-12-07T09:42:27;62824.88;;;7.99;100.00
6899;BME280;3488;42.616;23.350;2022-12-07T09:44:56;62841.50;;;8.20;100.00
6899;BME280;3488;42.616;23.350;2022-12-07T09:47:27;62860.66;;;8.39;100.00
6899;BME280;3488;42.616;23.350;2022-12-07T09:50:03;62886.47;;;8.64;100.00
6899;BME280;3488;42.616;23.350;2022-12-07T09:52:32;62905.47;;;8.75;100.00
6899;BME280;3488;42.616;23.350;2022-12-07T09:54:59;62907.19;;;8.86;100.00
6899;BME280;3488;42.616;23.350;2022-12-07T09:57:29;62898.91;;;8.78;100.00
6899;BME280;3488;42.616;23.350;2022-12-07T09:59:59;62910.78;;;8.90;100.00
6899;BME280;3488;42.616;23.350;2022-12-07T10:02:35;62928.31;;;9.04;100.00
6899;BME280;3488;42.616;23.350;2022-12-07T10:05:04;62951.94;;;9.20;100.00
6899;BME280;3488;42.616;23.350;2022-12-07T10:07:33;62950.47;;;9.21;100.00
6899;BME280;3488;42.616;23.350;2022-12-07T10:10:03;62939.13;;;9.12;100.00
6899;BME280;3488;42.616;23.350;2022-12-07T10:12:30;62934.00;;;9.10;100.00
6899;BME280;3488;42.616;23.350;2022-12-07T10:15:00;62918.97;;;8.93;100.00
6899;BME280;3488;42.616;23.350;2022-12-07T10:17:36;62936.44;;;9.05;100.00
6899;BME280;3488;42.616;23.350;2022-12-07T10:20:31;62888.00;;;8.65;100.00
6899;BME280;3488;42.616;23.350;2022-12-07T10:23:14;62900.94;;;8.78;100.00
6899;BME280;3488;42.616;23.350;2022-12-07T10:25:41;62927.34;;;9.06;100.00
6899;BME280;3488;42.616;23.350;2022-12-07T10:28:18;62936.06;;;9.12;100.00
6899;BME280;3488;42.616;23.350;2022-12-07T10:30:56;62884.38;;;8.59;100.00
6899;BME280;3488;42.616;23.350;2022-12-07T10:33:33;62887.03;;;8.67;100.00
6899;BME280;3488;42.616;23.350;2022-12-07T10:36:16;62940.69;;;9.14;100.00
6899;BME280;3488;42.616;23.350;2022-12-07T10:38:47;62962.97;;;9.41;100.00
6899;BME280;3488;42.616;23.350;2022-12-07T10:41:16;62967.03;;;9.40;100.00
6899;BME280;3488;42.616;23.350;2022-12-07T10:43:51;62990.84;;;9.63;100.00
6899;BME280;3488;42.616;23.350;2022-12-07T10:46:46;62965.53;;;9.41;100.00
6899;BME280;3488;42.616;23.350;2022-12-07T10:49:58;62955.66;;;9.28;100.00
6899;BME280;3488;42.616;23.350;2022-12-07T10:52:41;62956.19;;;9.29;100.00
6899;BME280;3488;42.616;23.350;2022-12-07T10:55:20;62906.66;;;8.86;100.00
6899;BME280;3488;42.616;23.350;2022-12-07T10:58:04;62935.97;;;9.07;100.00
6899;BME280;3488;42.616;23.350;2022-12-07T11:00:44;62953.13;;;9.28;100.00
6899;BME280;3488;42.616;23.350;2022-12-07T11:03:41;62956.75;;;9.32;100.00
6899;BME280;3488;42.616;23.350;2022-12-07T11:06:26;62974.31;;;9.49;100.00
6899;BME280;3488;42.616;23.350;2022-12-07T11:09:21;62984.63;;;9.57;100.00
6899;BME280;3488;42.616;23.350;2022-12-07T11:12:01;62973.81;;;9.49;100.00
6899;BME280;3488;42.616;23.350;2022-12-07T11:14:38;62956.28;;;9.34;100.00
6899;BME280;3488;42.616;23.350;2022-12-07T11:17:12;62979.44;;;9.52;100.00
6899;BME280;3488;42.616;23.350;2022-12-07T11:19:55;62981.03;;;9.56;100.00
6899;BME280;3488;42.616;23.350;2022-12-07T11:22:33;62976.84;;;9.49;100.00
6899;BME280;3488;42.616;23.350;2022-12-07T11:25:14;62979.50;;;9.54;100.00
6899;BME280;3488;42.616;23.350;2022-12-07T11:27:51;62970.66;;;9.43;100.00
6899;BME280;3488;42.616;23.350;2022-12-07T11:30:29;62987.25;;;9.62;100.00
6899;BME280;3488;42.616;23.350;2022-12-07T11:33:11;62945.38;;;9.21;100.00
6899;BME280;3488;42.616;23.350;2022-12-07T11:35:52;62897.25;;;8.72;100.00
6899;BME280;3488;42.616;23.350;2022-12-07T11:38:28;62906.00;;;8.78;100.00
6899;BME280;3488;42.616;23.350;2022-12-07T11:41:01;62917.97;;;8.94;100.00
6899;BME280;3488;42.616;23.350;2022-12-07T11:43:50;62944.78;;;9.15;100.00
6899;BME280;3488;42.616;23.350;2022-12-07T11:46:20;62948.56;;;9.29;100.00
6899;BME280;3488;42.616;23.350;2022-12-07T11:48:53;62970.59;;;9.41;100.00
6899;BME280;3488;42.616;23.350;2022-12-07T11:51:22;62949.41;;;9.20;100.00
6899;BME280;3488;42.616;23.350;2022-12-07T11:53:53;62966.47;;;9.37;100.00
6899;BME280;3488;42.616;23.350;2022-12-07T11:56:25;62985.59;;;9.55;100.00
6899;BME280;3488;42.616;23.350;2022-12-07T11:58:57;62995.00;;;9.69;100.00
6899;BME280;3488;42.616;23.350;2022-12-07T12:01:35;63007.38;;;9.79;100.00
6899;BME280;3488;42.616;23.350;2022-12-07T12:04:16;63025.44;;;9.94;100.00
6899;BME280;3488;42.616;23.350;2022-12-07T12:06:45;63020.34;;;9.94;100.00
6899;BME280;3488;42.616;23.350;2022-12-07T12:09:14;63003.28;;;9.77;100.00
6899;BME280;3488;42.616;23.350;2022-12-07T12:12:01;62980.00;;;9.55;100.00
6899;BME280;3488;42.616;23.350;2022-12-07T12:14:43;62972.22;;;9.45;100.00
6899;BME280;3488;42.616;23.350;2022-12-07T12:17:39;62998.56;;;9.70;100.00
6899;BME280;3488;42.616;23.350;2022-12-07T12:20:19;63019.81;;;9.93;99.52
6899;BME280;3488;42.616;23.350;2022-12-07T12:22:52;63037.44;;;10.10;99.18
6899;BME280;3488;42.616;23.350;2022-12-07T12:25:24;63064.84;;;10.37;97.19
6899;BME280;3488;42.616;23.350;2022-12-07T12:27:54;63081.97;;;10.56;92.78
6899;BME280;3488;42.616;23.350;2022-12-07T12:30:31;63105.75;;;10.77;90.92
6899;BME280;3488;42.616;23.350;2022-12-07T12:33:04;63109.31;;;10.78;89.45
6899;BME280;3488;42.616;23.350;2022-12-07T12:35:35;63109.88;;;10.81;89.07
6899;BME280;3488;42.616;23.350;2022-12-07T12:38:25;63058.09;;;10.28;92.32
6899;BME280;3488;42.616;23.350;2022-12-07T12:40:54;63082.88;;;10.49;92.05
6899;BME280;3488;42.616;23.350;2022-12-07T12:43:48;63079.81;;;10.49;92.01
6899;BME280;3488;42.616;23.350;2022-12-07T12:46:47;63012.06;;;9.86;94.91
6899;BME280;3488;42.616;23.350;2022-12-07T12:49:33;63050.91;;;10.26;95.01
6899;BME280;3488;42.616;23.350;2022-12-07T12:52:01;63086.50;;;10.53;93.72
6899;BME280;3488;42.616;23.350;2022-12-07T12:55:01;63115.09;;;10.88;89.61
6899;BME280;3488;42.616;23.350;2022-12-07T12:57:29;63125.88;;;10.94;88.90
6899;BME280;3488;42.616;23.350;2022-12-07T12:59:57;63094.94;;;10.71;89.27
6899;BME280;3488;42.616;23.350;2022-12-07T13:02:27;63138.31;;;11.06;89.88
6899;BME280;3488;42.616;23.350;2022-12-07T13:04:56;63167.88;;;11.37;87.03
6899;BME280;3488;42.616;23.350;2022-12-07T13:07:56;63160.63;;;11.32;85.00
6899;BME280;3488;42.616;23.350;2022-12-07T13:10:39;63124.28;;;10.90;85.58
6899;BME280;3488;42.616;23.350;2022-12-07T13:22:46;63081.88;;;10.51;87.82
6899;BME280;3488;42.616;23.350;2022-12-07T13:25:29;63085.03;;;10.57;87.59
6899;BME280;3488;42.616;23.350;2022-12-07T13:28:01;63073.13;;;10.45;87.81
6899;BME280;3488;42.616;23.350;2022-12-07T13:30:32;63077.78;;;10.49;88.72
6899;BME280;3488;42.616;23.350;2022-12-07T13:33:09;63072.09;;;10.44;89.28
6899;BME280;3488;42.616;23.350;2022-12-07T13:35:40;63067.44;;;10.39;89.86
6899;BME280;3488;42.616;23.350;2022-12-07T13:38:23;63081.41;;;10.53;89.69
6899;BME280;3488;42.616;23.350;2022-12-07T13:41:12;63081.97;;;10.56;89.80
6899;BME280;3488;42.616;23.350;2022-12-07T13:43:48;63090.19;;;10.62;90.57